createdAt,value
2018-04-25T00:00:34.658Z,17.60
2018-04-25T00:03:00.992Z,17.80
2018-04-25T00:05:27.337Z,17.30
2018-04-25T00:07:53.786Z,16.80
2018-04-25T00:10:20.158Z,17.10
2018-04-25T00:12:46.563Z,17.60
2018-04-25T00:15:13.075Z,17.40
2018-04-25T00:17:39.451Z,16.80
2018-04-25T00:20:05.759Z,17.00
2018-04-25T00:22:32.070Z,17.00
2018-04-25T00:25:00.352Z,17.80
2018-04-25T00:27:26.723Z,17.80
2018-04-25T00:29:53.058Z,17.50
2018-04-25T00:32:19.386Z,17.50
2018-04-25T00:34:46.495Z,17.70
2018-04-25T00:37:13.582Z,17.60
2018-04-25T00:39:39.905Z,17.60
2018-04-25T00:42:06.958Z,17.10
2018-04-25T00:44:33.916Z,16.90
2018-04-25T00:46:59.988Z,17.30
2018-04-25T00:49:26.115Z,16.20
2018-04-25T00:51:52.238Z,16.00
2018-04-25T00:54:19.108Z,15.30
2018-04-25T00:56:45.645Z,15.30
2018-04-25T00:59:12.710Z,15.30
2018-04-25T01:01:38.855Z,15.30
2018-04-25T01:04:04.976Z,15.20
2018-04-25T01:06:31.279Z,13.30
2018-04-25T01:08:57.404Z,12.90
2018-04-25T01:11:23.719Z,11.60
2018-04-25T01:13:50.233Z,11.80
2018-04-25T01:16:17.298Z,11.80
2018-04-25T01:18:43.414Z,11.70
2018-04-25T01:21:10.269Z,10.30
2018-04-25T01:23:36.358Z,10.20
2018-04-25T01:26:06.090Z,9.70
2018-04-25T01:28:39.534Z,9.60
2018-04-25T01:31:27.785Z,9.30
2018-04-25T01:33:54.103Z,8.90
2018-04-25T01:36:27.989Z,8.20
2018-04-25T01:38:54.322Z,8.10
2018-04-25T01:41:20.652Z,8.70
2018-04-25T01:43:49.822Z,8.60
2018-04-25T01:46:18.102Z,8.00
2018-04-25T01:49:05.401Z,8.40
2018-04-25T01:51:44.568Z,8.00
2018-04-25T01:54:23.111Z,7.60
2018-04-25T01:57:01.738Z,7.60
2018-04-25T01:59:40.293Z,8.30
2018-04-25T02:02:06.500Z,7.20
2018-04-25T02:04:32.816Z,7.10
2018-04-25T02:06:59.121Z,6.80
2018-04-25T02:09:26.220Z,7.10
2018-04-25T02:11:52.562Z,7.00
2018-04-25T02:14:18.880Z,6.70
2018-04-25T02:16:45.201Z,7.20
2018-04-25T02:19:12.267Z,6.80
2018-04-25T02:21:39.322Z,6.70
2018-04-25T02:24:05.620Z,6.80
2018-04-25T02:26:31.941Z,7.10
2018-04-25T02:28:58.988Z,7.40
2018-04-25T02:31:26.090Z,7.40
2018-04-25T02:33:52.456Z,7.30
2018-04-25T02:36:18.813Z,7.10
2018-04-25T02:38:45.148Z,7.40
2018-04-25T02:41:11.447Z,7.20
2018-04-25T02:43:37.775Z,7.70
2018-04-25T02:46:04.083Z,7.60
2018-04-25T02:48:30.432Z,7.80
2018-04-25T02:50:56.759Z,7.30
2018-04-25T02:53:23.083Z,7.50
2018-04-25T02:55:49.423Z,7.60
2018-04-25T02:58:15.707Z,8.10
2018-04-25T03:00:42.018Z,8.30
2018-04-25T03:03:08.318Z,8.20
2018-04-25T03:05:34.649Z,8.60
2018-04-25T03:08:00.959Z,8.90
2018-04-25T03:10:27.315Z,9.30
2018-04-25T03:12:53.599Z,9.10
2018-04-25T03:15:20.631Z,9.30
2018-04-25T03:17:47.681Z,9.10
2018-04-25T03:20:13.938Z,9.10
2018-04-25T03:22:40.433Z,9.20
2018-04-25T03:25:07.445Z,9.50
2018-04-25T03:27:33.781Z,9.40
2018-04-25T03:30:00.207Z,10.10
2018-04-25T03:32:26.523Z,10.20
2018-04-25T03:34:52.856Z,10.20
2018-04-25T03:37:19.178Z,10.30
2018-04-25T03:39:45.485Z,11.20
2018-04-25T03:42:11.795Z,10.30
2018-04-25T03:44:38.155Z,10.60
2018-04-25T03:47:04.468Z,10.60
2018-04-25T03:49:31.527Z,10.80
2018-04-25T03:51:58.587Z,10.90
2018-04-25T03:54:24.926Z,10.90
2018-04-25T03:56:51.995Z,11.30
2018-04-25T03:59:18.843Z,10.80
2018-04-25T04:01:45.887Z,11.10
2018-04-25T04:04:11.999Z,11.10
2018-04-25T04:06:38.113Z,11.50
2018-04-25T04:09:04.249Z,11.70
2018-04-25T04:11:30.376Z,11.90
2018-04-25T04:13:57.228Z,12.30
2018-04-25T04:16:23.356Z,12.30
2018-04-25T04:18:50.325Z,12.90
2018-04-25T04:21:16.459Z,12.90
2018-04-25T04:23:43.350Z,14.10
2018-04-25T04:26:12.642Z,13.90
2018-04-25T04:28:38.797Z,13.70
2018-04-25T04:31:05.710Z,14.20
2018-04-25T04:33:31.831Z,15.10
2018-04-25T04:36:01.193Z,15.10
2018-04-25T04:38:28.088Z,15.20
2018-04-25T04:40:54.263Z,15.10
2018-04-25T04:43:20.403Z,15.20
2018-04-25T04:45:46.510Z,15.20
2018-04-25T04:48:12.611Z,15.10
2018-04-25T04:50:38.711Z,15.20
2018-04-25T04:53:04.818Z,16.10
2018-04-25T04:55:30.984Z,16.20
2018-04-25T04:57:57.080Z,16.40
2018-04-25T05:00:23.178Z,16.20
2018-04-25T05:02:49.292Z,16.00
2018-04-25T05:05:15.402Z,16.00
2018-04-25T05:07:42.307Z,15.70
2018-04-25T05:10:08.416Z,15.70
2018-04-25T05:12:34.565Z,15.30
2018-04-25T05:15:00.761Z,14.90
2018-04-25T05:17:26.872Z,16.10
2018-04-25T05:19:53.008Z,16.20
2018-04-25T05:22:19.163Z,16.40
2018-04-25T05:24:46.085Z,15.70
2018-04-25T05:27:12.173Z,15.10
2018-04-25T05:29:38.299Z,14.90
2018-04-25T05:32:05.380Z,15.20
2018-04-25T05:34:31.575Z,15.10
2018-04-25T05:36:58.470Z,15.10
2018-04-25T05:39:24.783Z,15.10
2018-04-25T05:41:50.926Z,15.10
2018-04-25T05:44:17.106Z,16.60
2018-04-25T05:46:43.235Z,17.50
2018-04-25T05:49:09.382Z,18.70
2018-04-25T05:51:35.620Z,20.20
2018-04-25T05:54:03.051Z,23.20
2018-04-25T05:56:30.083Z,30.30
2018-04-25T05:58:56.207Z,30.40
2018-04-25T06:01:23.066Z,37.70
2018-04-25T06:03:49.968Z,40.20
2018-04-25T06:06:16.225Z,40.00
2018-04-25T06:08:42.356Z,42.10
2018-04-25T06:11:08.588Z,45.50
2018-04-25T06:13:34.808Z,48.10
2018-04-25T06:16:01.070Z,49.90
2018-04-25T06:18:27.179Z,50.60
2018-04-25T06:20:53.472Z,53.30
2018-04-25T06:23:19.805Z,54.30
2018-04-25T06:25:45.950Z,55.60
2018-04-25T06:28:12.352Z,58.10
2018-04-25T06:30:38.384Z,59.60
2018-04-25T06:33:04.706Z,61.10
2018-04-25T06:35:31.556Z,63.70
2018-04-25T06:37:58.455Z,65.60
2018-04-25T06:40:24.562Z,65.60
2018-04-25T06:42:51.413Z,68.60
2018-04-25T06:45:18.254Z,66.90
2018-04-25T06:47:45.111Z,64.50
2018-04-25T06:50:11.219Z,64.50
2018-04-25T06:52:37.467Z,65.10
2018-04-25T06:55:03.660Z,66.00
2018-04-25T06:57:30.524Z,69.20
2018-04-25T06:59:56.732Z,69.20
2018-04-25T07:02:23.587Z,69.60
2018-04-25T07:04:49.696Z,69.50
2018-04-25T07:07:15.833Z,70.10
2018-04-25T07:09:41.954Z,70.50
2018-04-25T07:12:08.055Z,70.00
2018-04-25T07:14:34.906Z,69.90
2018-04-25T07:17:01.043Z,70.20
2018-04-25T07:19:27.444Z,69.30
2018-04-25T07:21:53.570Z,69.40
2018-04-25T07:24:19.689Z,67.90
2018-04-25T07:26:45.815Z,67.30
2018-04-25T07:29:11.924Z,66.00
2018-04-25T07:31:38.248Z,63.60
2018-04-25T07:34:04.611Z,64.20
2018-04-25T07:36:30.931Z,63.50
2018-04-25T07:38:58.082Z,62.80
2018-04-25T07:41:24.778Z,62.80
2018-04-25T07:43:50.998Z,60.70
2018-04-25T07:46:17.128Z,63.30
2018-04-25T07:48:43.454Z,62.40
2018-04-25T07:51:09.860Z,62.90
2018-04-25T07:53:36.926Z,51.80
2018-04-25T07:56:04.075Z,36.10
2018-04-25T07:58:30.387Z,35.60
2018-04-25T08:01:01.660Z,28.40
2018-04-25T08:03:27.955Z,28.50
2018-04-25T08:05:54.265Z,30.00
2018-04-25T08:08:20.582Z,28.70
2018-04-25T08:10:46.936Z,26.70
2018-04-25T08:13:28.814Z,23.90
2018-04-25T08:16:07.171Z,22.30
2018-04-25T08:18:45.792Z,19.50
2018-04-25T08:21:24.178Z,20.50
2018-04-25T08:23:50.891Z,22.80
2018-04-25T08:26:17.372Z,23.60
2018-04-25T08:28:43.714Z,24.60
2018-04-25T08:31:11.587Z,23.90
2018-04-25T08:33:38.742Z,26.10
2018-04-25T08:36:05.035Z,26.00
2018-04-25T08:38:31.465Z,26.80
2018-04-25T08:40:57.779Z,25.90
2018-04-25T08:43:24.083Z,29.80
2018-04-25T08:45:51.331Z,29.30
2018-04-25T08:48:18.406Z,31.10
2018-04-25T08:50:47.115Z,33.10
2018-04-25T08:53:14.187Z,33.00
2018-04-25T08:55:40.517Z,33.00
2018-04-25T08:58:07.610Z,34.80
2018-04-25T09:00:33.903Z,34.80
2018-04-25T09:03:00.225Z,35.80
2018-04-25T09:05:26.648Z,38.00
2018-04-25T09:07:56.761Z,37.00
2018-04-25T09:10:23.821Z,43.10
2018-04-25T09:12:50.262Z,42.70
2018-04-25T09:15:16.576Z,44.20
2018-04-25T09:17:42.894Z,47.60
2018-04-25T09:20:09.962Z,51.00
2018-04-25T09:22:41.599Z,50.90
2018-04-25T09:25:08.979Z,51.40
2018-04-25T09:27:36.077Z,52.40
2018-04-25T09:30:03.173Z,49.70
2018-04-25T09:32:30.265Z,48.80
2018-04-25T09:34:56.607Z,48.80
2018-04-25T09:37:28.432Z,45.30
2018-04-25T09:39:54.776Z,44.70
2018-04-25T09:42:21.130Z,44.20
2018-04-25T09:44:47.474Z,39.80
2018-04-25T09:47:13.910Z,35.50
2018-04-25T09:49:40.244Z,40.90
2018-04-25T09:52:06.560Z,38.60
2018-04-25T09:54:35.199Z,28.60
2018-04-25T09:57:01.853Z,26.40
2018-04-25T09:59:28.169Z,24.40
2018-04-25T10:02:00.637Z,26.80
2018-04-25T10:04:26.940Z,22.00
2018-04-25T10:06:53.258Z,17.70
2018-04-25T10:09:25.260Z,18.20
2018-04-25T10:11:52.403Z,17.30
2018-04-25T10:14:18.764Z,17.30
2018-04-25T10:16:44.873Z,16.60
2018-04-25T10:19:11.236Z,17.80
2018-04-25T10:21:37.352Z,16.60
2018-04-25T10:24:04.236Z,17.10
2018-04-25T10:26:35.326Z,17.00
2018-04-25T10:29:01.434Z,17.70
2018-04-25T10:31:27.527Z,18.30
2018-04-25T10:33:53.637Z,14.60
2018-04-25T10:36:20.626Z,15.40
2018-04-25T10:38:46.745Z,15.40
2018-04-25T10:41:12.873Z,12.30
2018-04-25T10:43:40.719Z,9.70
2018-04-25T10:46:07.033Z,10.40
2018-04-25T10:48:34.091Z,10.00
2018-04-25T10:51:00.398Z,10.40
2018-04-25T10:53:27.701Z,11.50
2018-04-25T10:55:54.770Z,8.50
2018-04-25T10:58:21.268Z,8.50
2018-04-25T11:00:50.290Z,9.60
2018-04-25T11:03:16.754Z,10.20
2018-04-25T11:05:43.076Z,8.10
2018-04-25T11:08:09.428Z,9.20
2018-04-25T11:10:36.579Z,8.30
2018-04-25T11:13:02.767Z,8.30
2018-04-25T11:15:28.931Z,9.30
2018-04-25T11:17:55.266Z,10.10
2018-04-25T11:20:24.701Z,9.60
2018-04-25T11:22:51.042Z,10.30
2018-04-25T11:25:17.347Z,11.60
2018-04-25T11:27:43.677Z,5.90
2018-04-25T11:30:09.991Z,7.50
2018-04-25T11:32:37.120Z,6.70
2018-04-25T11:35:03.407Z,6.60
2018-04-25T11:37:35.174Z,9.50
2018-04-25T11:40:01.302Z,9.50
2018-04-25T11:42:27.428Z,6.50
2018-04-25T11:44:53.538Z,5.80
2018-04-25T11:47:19.705Z,3.90
2018-04-25T11:49:45.796Z,5.00
2018-04-25T11:52:11.941Z,6.00
2018-04-25T11:54:40.893Z,5.30
2018-04-25T11:57:07.002Z,5.30
2018-04-25T11:59:33.165Z,4.70
2018-04-25T12:01:59.297Z,6.00
2018-04-25T12:04:25.454Z,3.30
2018-04-25T12:06:51.586Z,1.40
2018-04-25T12:09:17.711Z,1.70
2018-04-25T12:11:46.911Z,3.60
2018-04-25T12:14:13.983Z,2.10
2018-04-25T12:16:40.348Z,1.90
2018-04-25T12:19:07.293Z,1.00
2018-04-25T12:21:33.419Z,1.00
2018-04-25T12:23:59.526Z,1.00
2018-04-25T12:26:25.716Z,2.40
2018-04-25T12:28:51.838Z,1.50
2018-04-25T12:31:20.952Z,3.80
2018-04-25T12:33:48.046Z,1.80
2018-04-25T12:36:15.101Z,2.20
2018-04-25T12:38:42.485Z,2.40
2018-04-25T12:41:09.351Z,2.60
2018-04-25T12:43:36.199Z,1.80
2018-04-25T12:46:05.665Z,1.60
2018-04-25T12:48:31.782Z,1.00
2018-04-25T12:50:57.986Z,1.50
2018-04-25T12:53:24.131Z,1.10
2018-04-25T12:55:50.488Z,1.00
2018-04-25T12:58:17.682Z,1.20
2018-04-25T13:00:44.120Z,1.50
2018-04-25T13:03:16.400Z,1.80
2018-04-25T13:05:42.768Z,1.00
2018-04-25T13:08:09.111Z,1.00
2018-04-25T13:10:35.875Z,1.00
2018-04-25T13:13:02.891Z,1.00
2018-04-25T13:15:29.307Z,1.00
2018-04-25T13:17:56.228Z,1.60
2018-04-25T13:20:22.368Z,1.50
2018-04-25T13:22:50.046Z,3.20
2018-04-25T13:25:16.535Z,2.20
2018-04-25T13:27:42.839Z,2.90
2018-04-25T13:30:09.918Z,3.50
2018-04-25T13:32:36.251Z,3.40
2018-04-25T13:35:02.740Z,1.20
2018-04-25T13:37:29.795Z,1.00
2018-04-25T13:39:59.654Z,1.00
2018-04-25T13:42:26.714Z,1.00
2018-04-25T13:44:52.845Z,1.00
2018-04-25T13:47:19.182Z,1.90
2018-04-25T13:49:45.515Z,3.20
2018-04-25T13:52:11.827Z,1.00
2018-04-25T13:54:38.171Z,1.00
2018-04-25T13:57:07.065Z,1.00
2018-04-25T13:59:34.412Z,1.00
2018-04-25T14:02:01.451Z,1.00
2018-04-25T14:04:30.831Z,1.00
2018-04-25T14:06:56.917Z,1.00
2018-04-25T14:09:23.061Z,1.00
2018-04-25T14:11:50.140Z,1.00
2018-04-25T14:14:17.006Z,1.00
2018-04-25T14:16:43.117Z,1.00
2018-04-25T14:19:09.249Z,1.00
2018-04-25T14:21:35.396Z,1.00
2018-04-25T14:24:05.316Z,1.00
2018-04-25T14:26:32.473Z,1.00
2018-04-25T14:29:13.875Z,1.00
2018-04-25T14:31:45.776Z,1.00
2018-04-25T14:34:11.878Z,1.00
2018-04-25T14:36:38.054Z,1.00
2018-04-25T14:39:04.993Z,1.00
2018-04-25T14:41:31.133Z,1.00
2018-04-25T14:43:58.022Z,1.00
2018-04-25T14:46:24.896Z,1.00
2018-04-25T14:48:51.324Z,1.00
2018-04-25T14:51:17.466Z,1.00
2018-04-25T14:53:43.584Z,1.00
2018-04-25T14:56:09.749Z,1.00
2018-04-25T14:58:35.908Z,1.00
2018-04-25T15:01:02.051Z,1.00
2018-04-25T15:03:29.531Z,1.00
2018-04-25T15:05:55.690Z,1.00
2018-04-25T15:08:21.956Z,1.00
2018-04-25T15:10:48.405Z,1.00
2018-04-25T15:13:15.310Z,1.00
2018-04-25T15:15:41.523Z,1.00
2018-04-25T15:18:07.747Z,1.00
2018-04-25T15:20:33.899Z,1.00
2018-04-25T15:23:00.119Z,1.00
2018-04-25T15:25:26.320Z,1.00
2018-04-25T15:27:52.419Z,1.00
2018-04-25T15:30:18.537Z,1.00
2018-04-25T15:32:44.909Z,1.00
2018-04-25T15:35:11.029Z,1.00
2018-04-25T15:37:38.269Z,1.00
2018-04-25T15:40:04.413Z,1.00
2018-04-25T15:42:30.531Z,1.00
2018-04-25T15:44:56.667Z,1.00
2018-04-25T15:47:23.178Z,1.00
2018-04-25T15:49:49.406Z,1.00
2018-04-25T15:52:15.598Z,1.00
2018-04-25T15:54:41.739Z,1.00
2018-04-25T15:57:07.895Z,1.00
2018-04-25T15:59:34.003Z,1.00
2018-04-25T16:02:00.340Z,1.00
2018-04-25T16:04:26.468Z,1.00
2018-04-25T16:06:52.574Z,1.00
2018-04-25T16:09:19.139Z,1.00
2018-04-25T16:11:46.122Z,1.00
2018-04-25T16:14:12.270Z,1.00
2018-04-25T16:16:38.406Z,1.00
2018-04-25T16:19:04.520Z,1.00
2018-04-25T16:21:31.360Z,1.00
2018-04-25T16:23:57.452Z,1.00
2018-04-25T16:26:23.567Z,1.00
2018-04-25T16:28:49.735Z,1.00
2018-04-25T16:31:16.537Z,1.00
2018-04-25T16:33:42.926Z,1.00
2018-04-25T16:36:09.072Z,1.00
2018-04-25T16:38:35.981Z,1.00
2018-04-25T16:41:02.752Z,1.00
2018-04-25T16:43:52.907Z,1.00
2018-04-25T16:46:23.167Z,1.00
2018-04-25T16:48:49.266Z,1.00
2018-04-25T16:51:15.498Z,1.00
2018-04-25T16:53:45.426Z,1.00
2018-04-25T16:56:11.549Z,1.50
2018-04-25T16:58:37.815Z,1.00
2018-04-25T17:01:03.927Z,1.90
2018-04-25T17:03:30.855Z,1.90
2018-04-25T17:05:56.948Z,2.10
2018-04-25T17:08:23.116Z,3.30
2018-04-25T17:10:51.656Z,2.40
2018-04-25T17:13:17.776Z,3.80
2018-04-25T17:15:43.887Z,3.50
2018-04-25T17:18:10.831Z,4.30
2018-04-25T17:20:37.017Z,4.30
2018-04-25T17:23:03.916Z,4.30
2018-04-25T17:25:30.776Z,4.40
2018-04-25T17:27:59.391Z,4.40
2018-04-25T17:30:25.494Z,4.20
2018-04-25T17:32:51.597Z,4.40
2018-04-25T17:35:17.691Z,4.20
2018-04-25T17:37:43.963Z,4.90
2018-04-25T17:40:10.070Z,4.70
2018-04-25T17:42:36.195Z,4.30
2018-04-25T17:45:02.328Z,4.20
2018-04-25T17:47:31.940Z,4.50
2018-04-25T17:49:58.123Z,5.00
2018-04-25T17:52:24.952Z,5.50
2018-04-25T17:54:51.258Z,5.50
2018-04-25T17:57:17.378Z,5.90
2018-04-25T17:59:43.597Z,5.90
2018-04-25T18:02:09.739Z,5.80
2018-04-25T18:04:35.854Z,5.30
2018-04-25T18:07:02.003Z,4.90
2018-04-25T18:09:32.018Z,5.30
2018-04-25T18:11:58.152Z,5.50
2018-04-25T18:14:24.254Z,5.30
2018-04-25T18:16:50.400Z,5.50
2018-04-25T18:19:16.549Z,5.20
2018-04-25T18:21:42.672Z,5.60
2018-04-25T18:24:08.796Z,5.10
2018-04-25T18:26:34.919Z,6.20
2018-04-25T18:29:01.023Z,5.80
2018-04-25T18:31:27.128Z,6.30
2018-04-25T18:33:58.334Z,5.90
2018-04-25T18:36:24.460Z,6.10
2018-04-25T18:38:50.599Z,5.70
2018-04-25T18:41:17.561Z,6.10
2018-04-25T18:43:44.146Z,5.90
2018-04-25T18:46:10.318Z,5.70
2018-04-25T18:48:36.498Z,5.60
2018-04-25T18:51:03.334Z,6.00
2018-04-25T18:53:29.458Z,6.10
2018-04-25T18:55:55.559Z,6.60
2018-04-25T18:58:21.648Z,6.40
2018-04-25T19:00:48.597Z,7.40
2018-04-25T19:03:14.848Z,7.00
2018-04-25T19:05:40.937Z,6.80
2018-04-25T19:08:07.056Z,6.50
2018-04-25T19:10:33.231Z,6.80
2018-04-25T19:12:59.359Z,6.50
2018-04-25T19:15:25.549Z,6.70
2018-04-25T19:17:51.793Z,6.30
2018-04-25T19:20:18.033Z,7.50
2018-04-25T19:22:44.479Z,8.50
2018-04-25T19:25:10.797Z,8.00
2018-04-25T19:27:36.959Z,7.20
2018-04-25T19:30:03.869Z,7.70
2018-04-25T19:32:30.038Z,7.70
2018-04-25T19:34:56.252Z,8.40
2018-04-25T19:37:22.626Z,8.70
2018-04-25T19:39:49.562Z,7.30
2018-04-25T19:42:15.714Z,7.30
2018-04-25T19:44:41.969Z,7.10
2018-04-25T19:47:08.102Z,7.70
2018-04-25T19:49:34.225Z,6.90
2018-04-25T19:52:00.507Z,6.90
2018-04-25T19:54:26.743Z,6.20
2018-04-25T19:56:52.855Z,7.20
2018-04-25T19:59:18.984Z,6.20
2018-04-25T20:01:45.221Z,5.90
2018-04-25T20:04:11.373Z,6.30
2018-04-25T20:06:37.487Z,5.60
2018-04-25T20:09:03.633Z,6.20
2018-04-25T20:11:29.748Z,6.00
2018-04-25T20:13:56.749Z,6.80
2018-04-25T20:16:22.771Z,7.40
2018-04-25T20:18:49.891Z,6.30
2018-04-25T20:21:16.004Z,6.40
2018-04-25T20:23:42.131Z,6.50
2018-04-25T20:26:08.252Z,6.80
2018-04-25T20:28:34.383Z,8.90
2018-04-25T20:31:01.228Z,7.00
2018-04-25T20:33:27.407Z,7.10
2018-04-25T20:35:53.671Z,8.40
2018-04-25T20:38:19.812Z,7.50
2018-04-25T20:40:45.925Z,7.40
2018-04-25T20:43:12.906Z,7.70
2018-04-25T20:45:39.163Z,7.70
2018-04-25T20:48:05.301Z,9.60
2018-04-25T20:50:31.415Z,8.50
2018-04-25T20:52:57.556Z,8.50
2018-04-25T20:55:23.826Z,9.90
2018-04-25T20:57:50.095Z,9.90
2018-04-25T21:00:16.974Z,11.40
2018-04-25T21:02:43.136Z,11.40
2018-04-25T21:05:09.402Z,12.00
2018-04-25T21:07:36.317Z,12.10
2018-04-25T21:10:02.534Z,12.00
2018-04-25T21:12:28.675Z,12.80
2018-04-25T21:14:55.543Z,12.80
2018-04-25T21:17:21.787Z,12.80
2018-04-25T21:19:47.890Z,12.80
2018-04-25T21:22:14.011Z,13.30
2018-04-25T21:24:40.145Z,14.00
2018-04-25T21:27:06.264Z,14.20
2018-04-25T21:29:32.435Z,14.00
2018-04-25T21:31:58.550Z,13.40
2018-04-25T21:34:26.845Z,13.40
2018-04-25T21:36:52.959Z,12.80
2018-04-25T21:39:19.402Z,13.30
2018-04-25T21:41:45.814Z,13.20
2018-04-25T21:44:11.929Z,14.20
2018-04-25T21:46:38.178Z,14.20
2018-04-25T21:49:04.412Z,14.70
2018-04-25T21:51:30.588Z,15.40
2018-04-25T21:53:57.547Z,15.30
2018-04-25T21:56:23.739Z,15.30
2018-04-25T21:58:49.971Z,16.20
2018-04-25T22:01:16.453Z,15.10
2018-04-25T22:03:43.044Z,14.60
2018-04-25T22:06:09.319Z,14.80
2018-04-25T22:08:35.585Z,14.60
2018-04-25T22:11:01.818Z,15.60
2018-04-25T22:13:28.082Z,15.20
2018-04-25T22:15:55.127Z,16.30
2018-04-25T22:18:21.403Z,16.20
2018-04-25T22:20:47.586Z,17.10
2018-04-25T22:23:13.763Z,16.80
2018-04-25T22:25:40.728Z,16.90
2018-04-25T22:28:07.762Z,17.00
2018-04-25T22:30:33.999Z,16.90
2018-04-25T22:33:00.236Z,16.60
2018-04-25T22:35:26.488Z,16.80
2018-04-25T22:37:53.525Z,16.60
2018-04-25T22:40:19.691Z,16.80
2018-04-25T22:42:46.596Z,16.20
2018-04-25T22:45:12.824Z,16.10
2018-04-25T22:47:38.929Z,16.60
2018-04-25T22:50:05.572Z,16.80
2018-04-25T22:52:31.682Z,16.50
2018-04-25T22:54:57.801Z,15.90
2018-04-25T22:57:23.975Z,15.80
2018-04-25T22:59:50.099Z,16.10
2018-04-25T23:02:16.235Z,16.20
2018-04-25T23:04:42.364Z,15.80
2018-04-25T23:07:08.479Z,15.40
2018-04-25T23:09:35.318Z,14.80
2018-04-25T23:12:02.181Z,15.70
2018-04-25T23:14:29.986Z,14.50
2018-04-25T23:16:56.103Z,14.50
2018-04-25T23:19:22.239Z,14.20
2018-04-25T23:21:49.083Z,13.00
2018-04-25T23:24:15.191Z,13.00
2018-04-25T23:26:41.471Z,13.20
2018-04-25T23:29:08.341Z,12.70
2018-04-25T23:31:34.454Z,12.60
2018-04-25T23:34:01.327Z,11.80
2018-04-25T23:36:28.211Z,11.70
2018-04-25T23:38:54.309Z,11.70
2018-04-25T23:41:20.413Z,11.70
2018-04-25T23:43:46.531Z,11.60
2018-04-25T23:46:12.683Z,12.30
2018-04-25T23:48:38.770Z,11.70
2018-04-25T23:51:04.902Z,11.60
2018-04-25T23:53:31.751Z,11.60
2018-04-25T23:55:58.021Z,11.60
2018-04-25T23:58:24.349Z,12.30
